This is the latest recevied weather packets stored in our database for station/object KJ6BBX. If no packets are shown the sender has not sent any weather packets the latest 10 day(s).
| Time | Temp. | Humidity | Pressure | Rain* | Wind** | Luminosity | Snow |
|---|---|---|---|---|---|---|---|
| 1777934114 | 20° C | 60% | 1006.8 hPa | 0 mm | - | 348 W/m² | - |
| 1777933214 | 20.56° C | 57% | 1007 hPa | 0 mm | - | 390 W/m² | - |
| 1777932314 | 20.56° C | 57% | 1006.8 hPa | 0 mm | - | 480 W/m² | - |
| 1777931414 | 21.11° C | 56% | 1007.3 hPa | 0 mm | - | 373 W/m² | - |
| 1777930515 | 20° C | 54% | 1007.1 hPa | 0 mm | - | 437 W/m² | - |
| 1777929615 | 21.11° C | 53% | 1007.4 hPa | 0 mm | - | 350 W/m² | - |
| 1777928714 | 21.67° C | 52% | 1007 hPa | 0 mm | - | 561 W/m² | - |
| 1777927814 | 21.11° C | 52% | 1007.3 hPa | 0 mm | - | 252 W/m² | - |
| 1777926914 | 21.67° C | 50% | 1007.2 hPa | 0 mm | - | 326 W/m² | - |
| 1777926015 | 21.11° C | 52% | 1007.3 hPa | 0 mm | - | 679 W/m² | - |
| 1777925114 | 21.11° C | 52% | 1007.3 hPa | 0 mm | - | 313 W/m² | - |
| 1777924214 | 20.56° C | 55% | 1007.4 hPa | 0 mm | - | 325 W/m² | - |
| 1777923314 | 20° C | 56% | 1007.4 hPa | 0 mm | - | 419 W/m² | - |
| 1777922414 | 18.89° C | 57% | 1007.8 hPa | 0 mm | - | 259 W/m² | - |
| 1777921514 | 20° C | 56% | 1007.5 hPa | 0 mm | - | 305 W/m² | - |
| 1777920614 | 18.33° C | 61% | 1007.7 hPa | 0 mm | - | 289 W/m² | - |
| 1777919714 | 17.78° C | 64% | 1007.6 hPa | 0 mm | - | 98 W/m² | - |
| 1777918814 | 17.78° C | 59% | 1007.5 hPa | 0 mm | - | 161 W/m² | - |
| 1777917914 | 18.33° C | 59% | 1007.6 hPa | 0 mm | - | 132 W/m² | - |
| 1777917014 | 17.22° C | 60% | 1007.6 hPa | 0 mm | - | 190 W/m² | - |
| 1777916115 | 17.22° C | 63% | 1007.6 hPa | 0 mm | - | 110 W/m² | - |
| 1777915215 | 18.33° C | 63% | 1007.4 hPa | 0 mm | - | 666 W/m² | - |
| 1777914315 | 17.22° C | 67% | 1007.4 hPa | 0 mm | - | 185 W/m² | - |
| 1777913415 | 17.78° C | 66% | 1007.4 hPa | 0 mm | - | 327 W/m² | - |
| 1777912514 | 17.22° C | 67% | 1007.7 hPa | 0 mm | - | 167 W/m² | - |
* Rain since midnight (hover to see other rain measurements)
** Current wind speed in m/s (hover to see current wind gust speed)